createdAt,value
2016-05-07T00:00:22.499Z,52
2016-05-07T00:01:22.329Z,52.95
2016-05-07T00:02:22.489Z,52.76
2016-05-07T00:03:22.492Z,52.57
2016-05-07T00:04:22.478Z,52.67
2016-05-07T00:05:22.481Z,52.28
2016-05-07T00:06:22.484Z,52.48
2016-05-07T00:07:22.487Z,52.76
2016-05-07T00:08:22.473Z,52.92
2016-05-07T00:09:22.476Z,53.14
2016-05-07T00:10:22.463Z,53.69
2016-05-07T00:11:22.467Z,53.88
2016-05-07T00:12:22.984Z,53.88
2016-05-07T00:13:22.297Z,53.59
2016-05-07T00:14:22.299Z,53.5
2016-05-07T00:15:22.461Z,53.31
2016-05-07T00:16:22.604Z,53.69
2016-05-07T00:17:22.466Z,53.97
2016-05-07T00:18:22.454Z,54.07
2016-05-07T00:19:22.894Z,53.88
2016-05-07T00:20:22.441Z,53.69
2016-05-07T00:21:22.428Z,54.26
2016-05-07T00:22:22.430Z,54.36
2016-05-07T00:23:22.433Z,54.45
2016-05-07T00:24:36.595Z,54.64
2016-05-07T00:25:22.423Z,55.02
2016-05-07T00:26:22.679Z,55.21
2016-05-07T00:27:22.507Z,55.02
2016-05-07T00:28:22.665Z,54.93
2016-05-07T00:29:22.402Z,54.83
2016-05-07T00:30:22.404Z,54.93
2016-05-07T00:31:22.408Z,54.9
2016-05-07T00:32:22.395Z,55.38
2016-05-07T00:33:22.398Z,55.38
2016-05-07T00:34:22.400Z,55.38
2016-05-07T00:35:22.387Z,55.09
2016-05-07T00:36:22.390Z,55.57
2016-05-07T00:37:22.392Z,55.19
2016-05-07T00:38:22.381Z,55.47
2016-05-07T00:39:22.383Z,55.57
2016-05-07T00:40:22.386Z,55.76
2016-05-07T00:41:22.372Z,56.14
2016-05-07T00:42:22.375Z,55.95
2016-05-07T00:43:22.361Z,55.95
2016-05-07T00:44:22.364Z,56.62
2016-05-07T00:45:22.367Z,56.52
2016-05-07T00:46:22.370Z,56.33
2016-05-07T00:47:22.357Z,56.52
2016-05-07T00:48:22.188Z,56.52
2016-05-07T00:49:22.503Z,56.52
2016-05-07T00:50:22.349Z,56.33
2016-05-07T00:51:23.839Z,56.59
2016-05-07T00:52:22.339Z,57.28
2016-05-07T00:53:22.326Z,57.16
2016-05-07T00:54:22.329Z,56.78
2016-05-07T00:55:22.332Z,56.68
2016-05-07T00:56:22.319Z,56.97
2016-05-07T00:57:22.728Z,56.97
2016-05-07T00:58:22.308Z,57.35
2016-05-07T00:59:22.312Z,57.45
2016-05-07T01:00:22.157Z,57.64
2016-05-07T01:01:22.301Z,57.64
2016-05-07T01:02:23.459Z,57.54
2016-05-07T01:03:22.290Z,57.92
2016-05-07T01:04:22.293Z,57.73
2016-05-07T01:05:22.703Z,57.54
2016-05-07T01:06:22.284Z,57.82
2016-05-07T01:07:22.129Z,58.02
2016-05-07T01:08:22.132Z,58.21
2016-05-07T01:09:22.275Z,58.5
2016-05-07T01:10:22.278Z,57.99
2016-05-07T01:11:22.265Z,58.75
2016-05-07T01:12:22.268Z,58.47
2016-05-07T01:13:22.270Z,58.56
2016-05-07T01:14:22.258Z,58.65
2016-05-07T01:15:22.261Z,58.65
2016-05-07T01:16:22.247Z,58.75
2016-05-07T01:17:22.250Z,58.84
2016-05-07T01:18:22.238Z,59.13
2016-05-07T01:19:22.240Z,58.94
2016-05-07T01:20:22.227Z,59.03
2016-05-07T01:21:22.245Z,59.32
2016-05-07T01:22:22.233Z,58.94
2016-05-07T01:23:22.219Z,59.03
2016-05-07T01:24:22.222Z,58.47
2016-05-07T01:25:22.209Z,59.51
2016-05-07T01:26:22.213Z,59.42
2016-05-07T01:27:22.214Z,59.61
2016-05-07T01:28:22.046Z,59.51
2016-05-07T01:29:22.221Z,59.51
2016-05-07T01:30:22.191Z,59.51
2016-05-07T01:31:22.193Z,59.42
2016-05-07T01:32:22.197Z,59.32
2016-05-07T01:33:22.184Z,59.7
2016-05-07T01:34:22.187Z,59.51
2016-05-07T01:35:22.534Z,59.99
2016-05-07T01:36:22.270Z,59.51
2016-05-07T01:37:22.195Z,59.89
2016-05-07T01:38:22.306Z,60.18
2016-05-07T01:39:22.169Z,60.08
2016-05-07T01:40:22.156Z,60.18
2016-05-07T01:41:22.199Z,60.08
2016-05-07T01:42:23.002Z,60.18
2016-05-07T01:43:22.989Z,59.99
2016-05-07T01:45:22.132Z,60.85
2016-05-07T01:46:22.431Z,60.56
2016-05-07T01:47:22.277Z,60.75
2016-05-07T01:48:22.124Z,60.66
2016-05-07T01:49:22.267Z,60.75
2016-05-07T01:50:21.956Z,60.56
2016-05-07T01:51:21.960Z,60.56
2016-05-07T01:52:22.103Z,60.75
2016-05-07T01:53:22.105Z,60.66
2016-05-07T01:54:22.093Z,61.22
2016-05-07T01:55:22.095Z,61.22
2016-05-07T01:56:22.083Z,61.13
2016-05-07T01:57:22.117Z,60.94
2016-05-07T01:58:22.088Z,61.42
2016-05-07T01:59:21.919Z,61.13
2016-05-07T02:00:22.078Z,61.42
2016-05-07T02:01:22.064Z,61.67
2016-05-07T02:02:22.067Z,61.77
2016-05-07T02:03:22.070Z,61.86
2016-05-07T02:04:22.057Z,62.15
2016-05-07T02:05:22.044Z,62.43
2016-05-07T02:06:21.891Z,62.43
2016-05-07T02:07:22.050Z,62.05
2016-05-07T02:08:22.052Z,62.53
2016-05-07T02:09:23.805Z,62.72
2016-05-07T02:10:22.026Z,62.53
2016-05-07T02:11:22.029Z,62.72
2016-05-07T02:12:22.219Z,62.81
2016-05-07T02:13:22.191Z,62.62
2016-05-07T02:14:22.537Z,63.1
2016-05-07T02:15:22.009Z,63.1
2016-05-07T02:16:22.011Z,63.2
2016-05-07T02:17:21.999Z,63.01
2016-05-07T02:18:23.970Z,63.1
2016-05-07T02:19:23.395Z,63.67
2016-05-07T02:20:22.147Z,63.2
2016-05-07T02:21:22.681Z,63.39
2016-05-07T02:22:22.542Z,63.48
2016-05-07T02:23:22.406Z,63.39
2016-05-07T02:24:21.973Z,64.34
2016-05-07T02:25:21.960Z,64.24
2016-05-07T02:26:21.963Z,64.05
2016-05-07T02:27:21.965Z,64.05
2016-05-07T02:28:21.968Z,64.15
2016-05-07T02:29:21.956Z,64.24
2016-05-07T02:30:21.943Z,64.53
2016-05-07T02:31:21.945Z,64.62
2016-05-07T02:32:21.932Z,64.81
2016-05-07T02:33:21.763Z,64.72
2016-05-07T02:34:21.923Z,64.72
2016-05-07T02:35:21.769Z,64.53
2016-05-07T02:36:21.912Z,64.72
2016-05-07T02:37:21.914Z,64.9
2016-05-07T02:38:21.901Z,64.53
2016-05-07T02:39:21.905Z,64.5
2016-05-07T02:40:21.892Z,65.38
2016-05-07T02:41:21.894Z,65.1
2016-05-07T02:42:21.897Z,65.19
2016-05-07T02:43:21.883Z,65.16
2016-05-07T02:44:21.871Z,65.25
2016-05-07T02:45:21.874Z,65.25
2016-05-07T02:46:21.861Z,65.16
2016-05-07T02:47:21.863Z,65.35
2016-05-07T02:48:21.882Z,65.45
2016-05-07T02:49:21.712Z,65.64
2016-05-07T02:50:21.840Z,65.54
2016-05-07T02:51:21.843Z,66.02
2016-05-07T02:52:21.846Z,66.49
2016-05-07T02:53:21.832Z,66.3
2016-05-07T02:54:21.820Z,66.39
2016-05-07T02:56:21.825Z,66.11
2016-05-07T02:57:23.000Z,66.87
2016-05-07T02:58:21.815Z,67.07
2016-05-07T02:59:21.801Z,66.78
2016-05-07T03:00:21.804Z,66.78
2016-05-07T03:01:21.792Z,66.78
2016-05-07T03:02:21.794Z,66.68
2016-05-07T03:03:22.891Z,67.07
2016-05-07T03:04:22.581Z,66.87
2016-05-07T03:05:22.943Z,66.68
2016-05-07T03:06:21.774Z,67.07
2016-05-07T03:07:21.620Z,67.63
2016-05-07T03:08:21.763Z,67.63
2016-05-07T03:09:21.750Z,67.25
2016-05-07T03:10:21.597Z,67.25
2016-05-07T03:11:21.741Z,67.35
2016-05-07T03:12:21.883Z,67.35
2016-05-07T03:13:21.730Z,67.35
2016-05-07T03:14:21.732Z,67.63
2016-05-07T03:15:21.720Z,67.07
2016-05-07T03:16:21.722Z,67.54
2016-05-07T03:17:21.569Z,67.44
2016-05-07T03:18:21.712Z,67.92
2016-05-07T03:19:21.543Z,67.44
2016-05-07T03:20:21.701Z,67.92
2016-05-07T03:21:21.690Z,67.54
2016-05-07T03:22:21.692Z,67.54
2016-05-07T03:23:21.695Z,67.16
2016-05-07T03:24:21.681Z,67.92
2016-05-07T03:25:21.669Z,67.44
2016-05-07T03:26:21.671Z,67.44
2016-05-07T03:27:21.674Z,67.92
2016-05-07T03:28:22.411Z,67.44
2016-05-07T03:29:22.539Z,67.73
2016-05-07T03:30:21.853Z,67.63
2016-05-07T03:31:21.654Z,67.73
2016-05-07T03:32:21.656Z,67.35
2016-05-07T03:33:21.628Z,67.54
2016-05-07T03:34:21.630Z,67.82
2016-05-07T03:35:21.634Z,67.73
2016-05-07T03:36:23.011Z,68.01
2016-05-07T03:37:22.654Z,67.92
2016-05-07T03:38:21.453Z,67.63
2016-05-07T03:39:21.894Z,67.44
2016-05-07T03:40:22.130Z,67.63
2016-05-07T03:41:21.603Z,67.35
2016-05-07T03:42:21.636Z,67.44
2016-05-07T03:43:21.591Z,67.35
2016-05-07T03:44:21.579Z,67.44
2016-05-07T03:45:21.566Z,68.01
2016-05-07T03:46:21.569Z,67.92
2016-05-07T03:47:21.416Z,67.73
2016-05-07T03:48:21.558Z,67.92
2016-05-07T03:49:21.561Z,67.92
2016-05-07T03:50:21.393Z,67.73
2016-05-07T03:51:21.551Z,67.63
2016-05-07T03:52:21.554Z,67.44
2016-05-07T03:53:21.540Z,68.01
2016-05-07T03:54:21.528Z,67.92
2016-05-07T03:55:21.531Z,66.97
2016-05-07T03:56:21.517Z,67.86
2016-05-07T03:57:21.365Z,68.01
2016-05-07T03:58:21.507Z,68.05
2016-05-07T03:59:21.510Z,67.82
2016-05-07T04:00:21.497Z,67.47
2016-05-07T04:01:21.343Z,67.57
2016-05-07T04:02:21.503Z,67.67
2016-05-07T04:03:21.489Z,67.86
2016-05-07T04:04:21.492Z,67.76
2016-05-07T04:05:21.495Z,67.67
2016-05-07T04:06:21.482Z,67.41
2016-05-07T04:07:21.469Z,67.32
2016-05-07T04:08:21.472Z,66.85
2016-05-07T04:09:21.459Z,66.4
2016-05-07T04:10:21.461Z,66.15
2016-05-07T04:11:22.511Z,65.1
2016-05-07T04:12:35.657Z,65.1
2016-05-07T04:13:22.063Z,64.37
2016-05-07T04:14:21.457Z,63.51
2016-05-07T04:15:21.444Z,62.68
2016-05-07T04:17:21.636Z,61.29
2016-05-07T04:18:21.593Z,60.71
2016-05-07T04:19:21.283Z,59.59
2016-05-07T04:20:21.441Z,59.15
2016-05-07T04:21:35.603Z,58.86
2016-05-07T04:22:21.431Z,57.65
2016-05-07T04:23:21.434Z,57.36
2016-05-07T04:24:21.874Z,56.24
2016-05-07T04:25:21.424Z,55.67
2016-05-07T04:26:21.426Z,53.97
2016-05-07T04:27:21.429Z,53.33
2016-05-07T04:28:21.276Z,52.66
2016-05-07T04:29:21.434Z,52.4
2016-05-07T04:30:21.421Z,51.54
2016-05-07T04:31:21.440Z,50.12
2016-05-07T04:32:21.442Z,49.65
2016-05-07T04:33:21.429Z,49.1
2016-05-07T04:34:21.432Z,48.43
2016-05-07T04:35:21.278Z,47.58
2016-05-07T04:36:21.438Z,47.3
2016-05-07T04:37:21.440Z,46.43
2016-05-07T04:38:21.442Z,46.17
2016-05-07T04:39:21.462Z,45.23
2016-05-07T04:40:21.448Z,44.46
2016-05-07T04:41:21.450Z,43.81
2016-05-07T04:42:21.516Z,43.26
2016-05-07T04:43:21.457Z,42.68
2016-05-07T04:44:21.459Z,41.74
2016-05-07T04:45:21.477Z,41.06
2016-05-07T04:46:23.058Z,40.61
2016-05-07T04:47:22.249Z,40.12
2016-05-07T04:48:22.408Z,38.51
2016-05-07T04:49:21.472Z,38.22
2016-05-07T04:50:21.491Z,37.37
2016-05-07T04:51:21.494Z,37.27
2016-05-07T04:52:21.496Z,36.91
2016-05-07T04:53:21.562Z,36.04
2016-05-07T04:54:21.501Z,35.77
2016-05-07T04:55:22.192Z,35.19
2016-05-07T04:56:21.366Z,34.44
2016-05-07T04:57:22.369Z,34.14
2016-05-07T04:58:21.731Z,33.39
2016-05-07T04:59:21.546Z,33.29
2016-05-07T05:00:22.049Z,32.71
2016-05-07T05:01:21.552Z,31.48
2016-05-07T05:02:21.570Z,31.48
2016-05-07T05:03:21.573Z,30.99
2016-05-07T05:04:21.575Z,30.99
2016-05-07T05:05:21.595Z,30.04
2016-05-07T05:06:21.597Z,29.75
2016-05-07T05:07:21.614Z,29.57
2016-05-07T05:08:21.617Z,29.19
2016-05-07T05:09:21.620Z,28.43
2016-05-07T05:10:21.639Z,28.04
2016-05-07T05:11:21.642Z,27.46
2016-05-07T05:12:21.909Z,27.47
2016-05-07T05:13:21.662Z,27.46
2016-05-07T05:14:21.680Z,27.75
2016-05-07T05:15:21.699Z,27.66
2016-05-07T05:16:21.545Z,27.28
2016-05-07T05:17:21.705Z,26.52
2016-05-07T05:18:21.707Z,26.04
2016-05-07T05:19:21.725Z,26.04
2016-05-07T05:20:21.728Z,25.18
2016-05-07T05:21:21.746Z,24.21
2016-05-07T05:22:21.750Z,24.3
2016-05-07T05:23:21.768Z,24.4
2016-05-07T05:24:21.629Z,24.3
2016-05-07T05:25:21.788Z,24.3
2016-05-07T05:26:21.791Z,23.83
2016-05-07T05:27:22.309Z,23.74
2016-05-07T05:28:21.827Z,22.78
2016-05-07T05:29:21.830Z,22.97
2016-05-07T05:31:21.851Z,21.53
2016-05-07T05:32:22.573Z,21.72
2016-05-07T05:33:22.591Z,21.53
2016-05-07T05:34:22.297Z,21.82
2016-05-07T05:35:21.909Z,21.82
2016-05-07T05:36:21.912Z,21.64
2016-05-07T05:37:21.930Z,21.15
2016-05-07T05:38:21.792Z,21.36
2016-05-07T05:39:21.951Z,21.36
2016-05-07T05:40:22.063Z,20.98
2016-05-07T05:41:21.973Z,20.98
2016-05-07T05:42:22.209Z,20.4
2016-05-07T05:43:22.008Z,20.4
2016-05-07T05:44:22.028Z,20.11
2016-05-07T05:45:22.030Z,19.82
2016-05-07T05:46:22.048Z,19.53
2016-05-07T05:47:22.050Z,19.34
2016-05-07T05:48:22.069Z,19.32
2016-05-07T05:49:22.088Z,19.52
2016-05-07T05:50:22.090Z,19.52
2016-05-07T05:51:22.108Z,19.42
2016-05-07T05:52:22.111Z,19.43
2016-05-07T05:53:22.161Z,18.85
2016-05-07T05:54:22.163Z,18.85
2016-05-07T05:55:22.166Z,18.96
2016-05-07T05:56:22.185Z,18.96
2016-05-07T05:57:22.609Z,18.96
2016-05-07T05:58:22.205Z,18.87
2016-05-07T05:59:22.224Z,18.29
2016-05-07T06:00:22.227Z,18.29
2016-05-07T06:01:22.245Z,18.29
2016-05-07T06:02:22.263Z,18.3
2016-05-07T06:03:22.281Z,17.43
2016-05-07T06:04:23.081Z,16.64
2016-05-07T06:05:22.302Z,17.22
2016-05-07T06:07:22.573Z,17.41
2016-05-07T06:08:22.826Z,17.5
2016-05-07T06:09:22.407Z,16.63
2016-05-07T06:10:22.223Z,16.54
2016-05-07T06:11:22.381Z,16.34
2016-05-07T06:12:22.274Z,16.72
2016-05-07T06:13:22.417Z,16.82
2016-05-07T06:14:22.436Z,16.72
2016-05-07T06:15:22.454Z,16.24
2016-05-07T06:16:22.473Z,16.34
2016-05-07T06:17:22.475Z,16.44
2016-05-07T06:18:22.509Z,16.35
2016-05-07T06:19:23.169Z,15.77
2016-05-07T06:20:22.812Z,15.86
2016-05-07T06:21:22.533Z,16.35
2016-05-07T06:22:22.473Z,16.06
2016-05-07T06:23:22.835Z,15.86
2016-05-07T06:24:23.103Z,16.35
2016-05-07T06:25:22.591Z,16.35
2016-05-07T06:26:22.452Z,15.37
2016-05-07T06:27:22.486Z,15.66
2016-05-07T06:28:22.646Z,15.66
2016-05-07T06:29:22.507Z,15.75
2016-05-07T06:30:22.682Z,15.85
2016-05-07T06:31:22.700Z,15.66
2016-05-07T06:32:22.703Z,16.04
2016-05-07T06:33:22.722Z,16.04
2016-05-07T06:34:22.740Z,16.04
2016-05-07T06:35:22.773Z,15.55
2016-05-07T06:36:22.777Z,16.04
2016-05-07T06:37:22.638Z,16.24
2016-05-07T06:38:22.813Z,16.33
2016-05-07T06:39:22.815Z,16.53
2016-05-07T06:40:22.834Z,16.44
2016-05-07T06:41:22.853Z,16.25
2016-05-07T06:42:22.870Z,16.15
2016-05-07T06:43:22.904Z,16.46
2016-05-07T06:44:22.906Z,15.77
2016-05-07T06:45:22.925Z,16.06
2016-05-07T06:46:22.944Z,15.38
2016-05-07T06:47:22.962Z,15.58
2016-05-07T06:48:22.965Z,15.58
2016-05-07T06:49:37.170Z,15.38
2016-05-07T06:50:23.205Z,14.79
2016-05-07T06:51:23.317Z,15.37
2016-05-07T06:52:23.038Z,15.57
2016-05-07T06:53:23.056Z,15.77
2016-05-07T06:54:23.059Z,16.15
2016-05-07T06:55:23.093Z,15.57
2016-05-07T06:56:23.111Z,15.38
2016-05-07T06:57:22.973Z,15.47
2016-05-07T06:58:24.242Z,15.48
2016-05-07T06:59:24.151Z,15.58
2016-05-07T07:00:23.168Z,15.77
2016-05-07T07:01:23.390Z,15.67
2016-05-07T07:02:23.721Z,15.68
2016-05-07T07:03:23.224Z,15.09
2016-05-07T07:04:23.258Z,14.42
2016-05-07T07:05:23.260Z,14.61
2016-05-07T07:06:23.279Z,14.79
2016-05-07T07:07:23.297Z,14.6
2016-05-07T07:08:23.332Z,15.09
2016-05-07T07:09:23.334Z,14.89
2016-05-07T07:10:23.367Z,14.61
2016-05-07T07:11:23.371Z,14.62
2016-05-07T07:12:23.389Z,14.62
2016-05-07T07:13:23.407Z,14.43
2016-05-07T07:14:23.425Z,14.62
2016-05-07T07:15:23.444Z,14.83
2016-05-07T07:16:23.305Z,14.54
2016-05-07T07:17:23.481Z,14.25
2016-05-07T07:18:23.499Z,13.67
2016-05-07T07:19:23.517Z,13.27
2016-05-07T07:20:23.535Z,13.76
2016-05-07T07:21:23.553Z,13.28
2016-05-07T07:22:23.416Z,13.09
2016-05-07T07:23:24.606Z,13.18
2016-05-07T07:24:23.953Z,12.6
2016-05-07T07:25:24.986Z,12.6
2016-05-07T07:26:23.645Z,12.6
2016-05-07T07:27:23.507Z,12.3
2016-05-07T07:28:23.682Z,12.3
2016-05-07T07:29:24.215Z,12.12
2016-05-07T07:30:23.735Z,12.21
2016-05-07T07:31:23.753Z,12.12
2016-05-07T07:32:23.771Z,11.44
2016-05-07T07:33:24.132Z,11.64
2016-05-07T07:34:23.963Z,11.64
2016-05-07T07:35:23.826Z,11.74
2016-05-07T07:36:23.938Z,11.06
2016-05-07T07:37:24.050Z,10.97
2016-05-07T07:38:24.084Z,11.26
2016-05-07T07:39:23.899Z,11.07
2016-05-07T07:40:23.917Z,11.07
2016-05-07T07:41:23.935Z,10.88
2016-05-07T07:42:24.157Z,10.87
2016-05-07T07:43:23.988Z,11.46
2016-05-07T07:44:24.006Z,10.97
2016-05-07T07:45:24.025Z,10.88
2016-05-07T07:46:24.042Z,11.16
2016-05-07T07:47:24.061Z,10.68
2016-05-07T07:48:24.095Z,11.07
2016-05-07T07:49:24.114Z,10.97
2016-05-07T07:50:24.131Z,11.16
2016-05-07T07:51:24.150Z,10.77
2016-05-07T07:52:24.168Z,10.87
2016-05-07T07:53:24.187Z,11.07
2016-05-07T07:54:24.220Z,10.87
2016-05-07T07:55:24.239Z,11.06
2016-05-07T07:56:24.258Z,10.47
2016-05-07T07:57:24.275Z,11.16
2016-05-07T07:58:24.294Z,11.05
2016-05-07T07:59:24.312Z,10.76
2016-05-07T08:00:24.346Z,11.05
2016-05-07T08:01:24.364Z,10.95
2016-05-07T08:02:24.383Z,11.44
2016-05-07T08:03:24.401Z,10.95
2016-05-07T08:04:24.419Z,11.15
2016-05-07T08:05:24.453Z,11.54
2016-05-07T08:06:24.472Z,11.64
2016-05-07T08:07:24.490Z,11.64
2016-05-07T08:08:24.508Z,11.55
2016-05-07T08:09:24.526Z,11.35
2016-05-07T08:10:24.404Z,10.96
2016-05-07T08:11:25.235Z,11.35
2016-05-07T08:12:24.597Z,11.35
2016-05-07T08:13:24.928Z,10.96
2016-05-07T08:14:24.649Z,10.77
2016-05-07T08:15:24.714Z,10.57
2016-05-07T08:16:24.687Z,11.34
2016-05-07T08:17:24.704Z,11.34
2016-05-07T08:18:25.425Z,11.24
2016-05-07T08:19:24.741Z,10.95
2016-05-07T08:20:24.775Z,11.05
2016-05-07T08:21:24.793Z,10.85
2016-05-07T08:22:24.812Z,10.95
2016-05-07T08:23:24.955Z,11.43
2016-05-07T08:24:24.691Z,11.33
2016-05-07T08:25:24.866Z,11.52
2016-05-07T08:26:24.886Z,11.52
2016-05-07T08:27:24.794Z,11.43
2016-05-07T08:28:24.952Z,11.91
2016-05-07T08:29:24.960Z,12.49
2016-05-07T08:30:25.021Z,12.58
2016-05-07T08:31:25.083Z,12.96
2016-05-07T08:32:25.191Z,13.26
2016-05-07T08:33:25.049Z,14.03
2016-05-07T08:34:25.107Z,14.32
2016-05-07T08:35:25.297Z,14.9
2016-05-07T08:36:25.331Z,14.79
2016-05-07T08:37:25.365Z,15.57
2016-05-07T08:38:25.398Z,15.37
2016-05-07T08:39:25.430Z,15.18
2016-05-07T08:40:25.455Z,16.34
2016-05-07T08:41:25.322Z,16.42
2016-05-07T08:42:25.503Z,16.61
2016-05-07T08:43:25.996Z,16.31
2016-05-07T08:44:26.379Z,16.78
2016-05-07T08:45:25.821Z,17.26
2016-05-07T08:46:25.576Z,18.22
2016-05-07T08:47:25.596Z,18.71
2016-05-07T08:48:25.615Z,18.6
2016-05-07T08:49:25.621Z,19.46
2016-05-07T08:50:25.640Z,19.75
2016-05-07T08:51:27.112Z,19.84
2016-05-07T08:52:26.506Z,20.32
2016-05-07T08:53:25.681Z,20.51
2016-05-07T08:54:26.450Z,20.21
2016-05-07T08:55:26.500Z,20.99
2016-05-07T08:56:25.847Z,20.89
2016-05-07T08:57:25.835Z,21.56
2016-05-07T08:58:25.728Z,21.85
2016-05-07T08:59:25.731Z,22.13
2016-05-07T09:00:25.749Z,22.23
2016-05-07T09:01:25.768Z,22.13
2016-05-07T09:02:25.771Z,21.73
2016-05-07T09:03:25.773Z,22.6
2016-05-07T09:04:25.777Z,22.5
2016-05-07T09:05:25.638Z,22.6
2016-05-07T09:06:25.797Z,23.18
2016-05-07T09:07:25.815Z,23.08
2016-05-07T09:08:25.818Z,23.17
2016-05-07T09:09:25.821Z,23.17
2016-05-07T09:10:25.840Z,23.65
2016-05-07T09:11:25.842Z,23.94
2016-05-07T09:12:25.938Z,23.85
2016-05-07T09:13:25.862Z,23.75
2016-05-07T09:14:25.866Z,23.94
2016-05-07T09:15:25.868Z,23.94
2016-05-07T09:16:25.871Z,24.04
2016-05-07T09:17:25.904Z,24.13
2016-05-07T09:18:25.876Z,24.03
2016-05-07T09:19:25.879Z,24.32
2016-05-07T09:20:25.898Z,24.22
2016-05-07T09:21:25.900Z,24.61
2016-05-07T09:22:25.902Z,23.93
2016-05-07T09:23:25.921Z,23.83
2016-05-07T09:24:25.923Z,24.22
2016-05-07T09:25:25.942Z,24.32
2016-05-07T09:26:26.867Z,24.51
2016-05-07T09:27:25.994Z,24.03
2016-05-07T09:28:26.497Z,24.13
2016-05-07T09:29:25.937Z,24.13
2016-05-07T09:30:25.955Z,24.13
2016-05-07T09:31:25.817Z,24.22
2016-05-07T09:32:26.273Z,24.03
2016-05-07T09:33:25.963Z,24.51
2016-05-07T09:34:25.982Z,24.22
2016-05-07T09:35:25.985Z,23.83
2016-05-07T09:37:26.021Z,23.74
2016-05-07T09:38:25.993Z,23.93
2016-05-07T09:39:26.010Z,23.35
2016-05-07T09:40:25.857Z,23.16
2016-05-07T09:41:26.266Z,23.45
2016-05-07T09:42:27.191Z,23.65
2016-05-07T09:43:26.021Z,23.07
2016-05-07T09:44:26.024Z,23.25
2016-05-07T09:45:25.887Z,23.35
2016-05-07T09:46:26.046Z,23.25
2016-05-07T09:47:26.048Z,23.16
2016-05-07T09:48:26.051Z,23.16
2016-05-07T09:49:26.053Z,23.35
2016-05-07T09:50:26.056Z,23.45
2016-05-07T09:51:26.075Z,22.29
2016-05-07T09:52:26.078Z,22.77
2016-05-07T09:53:25.923Z,22.67
2016-05-07T09:54:26.083Z,22.49
2016-05-07T09:55:26.085Z,22.77
2016-05-07T09:56:26.104Z,22.49
2016-05-07T09:57:26.544Z,22.49
2016-05-07T09:58:26.109Z,22.39
2016-05-07T09:59:26.111Z,22.39
2016-05-07T10:00:26.114Z,22
2016-05-07T10:01:27.398Z,22
2016-05-07T10:02:27.605Z,22.39
2016-05-07T10:03:27.107Z,22.58
2016-05-07T10:04:26.141Z,22.2
2016-05-07T10:05:26.613Z,22.49
2016-05-07T10:06:26.224Z,22.02
2016-05-07T10:07:25.993Z,22.1
2016-05-07T10:08:26.371Z,22.58
2016-05-07T10:09:26.154Z,22.59
2016-05-07T10:10:27.126Z,22.49
2016-05-07T10:11:26.175Z,22.2
2016-05-07T10:12:26.849Z,21.92
2016-05-07T10:13:26.930Z,21.92
2016-05-07T10:14:26.637Z,21.34
2016-05-07T10:15:26.185Z,21.92
2016-05-07T10:16:26.204Z,21.92
2016-05-07T10:17:26.051Z,21.53
2016-05-07T10:18:26.210Z,21.44
2016-05-07T10:19:26.228Z,21.72
2016-05-07T10:20:26.215Z,21.53
2016-05-07T10:21:26.218Z,21.62
2016-05-07T10:22:26.220Z,21.53
2016-05-07T10:23:26.081Z,21.72
2016-05-07T10:24:26.241Z,21.53
2016-05-07T10:25:26.088Z,21.14
2016-05-07T10:26:26.247Z,21.24
2016-05-07T10:27:26.092Z,20.95
2016-05-07T10:28:26.263Z,20.95
2016-05-07T10:29:26.265Z,21.14
2016-05-07T10:30:26.267Z,20.86
2016-05-07T10:31:26.271Z,20.95
2016-05-07T10:32:26.289Z,20.28
2016-05-07T10:33:26.136Z,20.37
2016-05-07T10:34:26.278Z,20.18
2016-05-07T10:35:26.298Z,20.37
2016-05-07T10:36:26.316Z,20.56
2016-05-07T10:37:26.146Z,20.18
2016-05-07T10:38:26.322Z,20.08
2016-05-07T10:39:26.324Z,20.37
2016-05-07T10:40:26.326Z,20.47
2016-05-07T10:41:26.329Z,19.98
2016-05-07T10:42:26.425Z,20.76
2016-05-07T10:43:26.335Z,20.66
2016-05-07T10:44:26.196Z,21.14
2016-05-07T10:45:27.152Z,21.04
2016-05-07T10:46:26.655Z,21.25
2016-05-07T10:48:26.363Z,21.35
2016-05-07T10:49:26.507Z,21.54
2016-05-07T10:50:26.666Z,21.25
2016-05-07T10:51:26.215Z,21.25
2016-05-07T10:52:26.390Z,20.86
2016-05-07T10:53:26.393Z,20.96
2016-05-07T10:54:26.395Z,20.86
2016-05-07T10:56:26.462Z,21.06
2016-05-07T10:57:26.795Z,20.77
2016-05-07T10:58:26.406Z,20.87
2016-05-07T10:59:26.424Z,20.57
2016-05-07T11:00:26.428Z,19.91
2016-05-07T11:01:26.430Z,20.01
2016-05-07T11:02:26.432Z,20
2016-05-07T11:03:26.450Z,20.38
2016-05-07T11:04:26.454Z,20.19
2016-05-07T11:05:26.300Z,20.38
2016-05-07T11:06:26.302Z,20.38
2016-05-07T11:07:26.462Z,20.67
2016-05-07T11:08:26.480Z,20.57
2016-05-07T11:09:26.482Z,20.96
2016-05-07T11:10:26.485Z,20.28
2016-05-07T11:11:26.488Z,20.01
2016-05-07T11:12:26.616Z,19.91
2016-05-07T11:13:26.493Z,20.2
2016-05-07T11:14:26.496Z,20.39
2016-05-07T11:15:26.499Z,20.49
2016-05-07T11:16:26.360Z,20.39
2016-05-07T11:17:26.519Z,20.2
2016-05-07T11:18:26.522Z,20.2
2016-05-07T11:19:26.541Z,20.1
2016-05-07T11:20:26.902Z,19.62
2016-05-07T11:21:26.390Z,19.71
2016-05-07T11:22:27.814Z,19.62
2016-05-07T11:23:26.567Z,20.01
2016-05-07T11:24:26.570Z,19.62
2016-05-07T11:25:26.557Z,19.52
2016-05-07T11:26:26.575Z,20.01
2016-05-07T11:27:26.437Z,20.1
2016-05-07T11:28:26.581Z,20.29
2016-05-07T11:29:27.130Z,20.01
2016-05-07T11:30:28.211Z,20.2
2016-05-07T11:31:26.604Z,20.39
2016-05-07T11:32:27.591Z,20.39
2016-05-07T11:33:26.610Z,20.39
2016-05-07T11:34:26.612Z,20.49
2016-05-07T11:35:26.615Z,20.49
2016-05-07T11:36:26.633Z,20.2
2016-05-07T11:37:26.635Z,20.01
2016-05-07T11:38:26.639Z,19.81
2016-05-07T11:39:26.657Z,20.01
2016-05-07T11:40:26.644Z,20.59
2016-05-07T11:41:26.662Z,20.39
2016-05-07T11:42:26.509Z,20.2
2016-05-07T11:43:26.527Z,20.49
2016-05-07T11:44:26.670Z,20.59
2016-05-07T11:45:26.674Z,20.59
2016-05-07T11:46:26.691Z,20.4
2016-05-07T11:47:26.694Z,20.4
2016-05-07T11:48:26.540Z,20.4
2016-05-07T11:49:26.699Z,20.5
2016-05-07T11:50:26.702Z,19.92
2016-05-07T11:51:26.705Z,20.01
2016-05-07T11:52:26.723Z,20.1
2016-05-07T11:53:26.726Z,20.31
2016-05-07T11:54:26.729Z,19.81
2016-05-07T11:55:26.731Z,19.82
2016-05-07T11:56:26.749Z,19.63
2016-05-07T11:57:26.595Z,19.73
2016-05-07T11:58:26.755Z,19.92
2016-05-07T11:59:26.757Z,19.53
2016-05-07T12:00:26.760Z,19.83
2016-05-07T12:01:26.762Z,19.93
2016-05-07T12:02:26.781Z,19.54
2016-05-07T12:03:26.784Z,19.15
2016-05-07T12:04:27.536Z,18.96
2016-05-07T12:05:26.805Z,18.57
2016-05-07T12:06:26.855Z,18.19
2016-05-07T12:07:26.795Z,18.19
2016-05-07T12:08:26.813Z,18.57
2016-05-07T12:09:26.816Z,19.15
2016-05-07T12:10:27.022Z,18.57
2016-05-07T12:11:26.836Z,18.09
2016-05-07T12:12:27.089Z,18.87
2016-05-07T12:13:27.342Z,18.37
2016-05-07T12:14:27.547Z,18.76
2016-05-07T12:15:26.863Z,18.66
2016-05-07T12:17:26.868Z,18.27
2016-05-07T12:18:26.871Z,18.18
2016-05-07T12:19:26.890Z,17.79
2016-05-07T12:20:26.893Z,17.31
2016-05-07T12:21:26.895Z,17.4
2016-05-07T12:22:26.898Z,17.5
2016-05-07T12:23:26.901Z,17.22
2016-05-07T12:24:26.918Z,16.93
2016-05-07T12:25:26.906Z,17.51
2016-05-07T12:26:26.923Z,17.6
2016-05-07T12:27:26.990Z,17.12
2016-05-07T12:28:26.929Z,16.64
2016-05-07T12:29:26.948Z,16.46
2016-05-07T12:30:26.950Z,16.83
2016-05-07T12:31:26.797Z,16.74
2016-05-07T12:32:26.800Z,17.12
2016-05-07T12:33:26.958Z,16.64
2016-05-07T12:34:26.977Z,16.74
2016-05-07T12:35:26.978Z,16.54
2016-05-07T12:36:26.982Z,16.44
2016-05-07T12:37:26.984Z,16.16
2016-05-07T12:38:27.066Z,16.25
2016-05-07T12:39:27.005Z,16.16
2016-05-07T12:40:28.540Z,16.25
2016-05-07T12:41:27.011Z,16.63
2016-05-07T12:42:27.358Z,16.64
2016-05-07T12:43:27.032Z,16.83
2016-05-07T12:44:27.410Z,17.02
2016-05-07T12:45:27.131Z,17.41
2016-05-07T12:46:27.056Z,17.12
2016-05-07T12:47:27.043Z,17.02
2016-05-07T12:48:27.421Z,17.32
2016-05-07T12:49:27.689Z,17.02
2016-05-07T12:50:27.207Z,16.93
2016-05-07T12:51:27.069Z,16.54
2016-05-07T12:52:27.071Z,16.26
2016-05-07T12:53:27.090Z,16.16
2016-05-07T12:54:27.092Z,16.16
2016-05-07T12:55:27.112Z,16.26
2016-05-07T12:56:27.098Z,16.16
2016-05-07T12:57:26.960Z,16.46
2016-05-07T12:58:27.120Z,16.36
2016-05-07T12:59:27.123Z,17.22
2016-05-07T13:00:27.125Z,16.16
2016-05-07T13:01:27.143Z,16.36
2016-05-07T13:02:27.146Z,15.97
2016-05-07T13:03:27.148Z,16.06